Wilmington, OH

9:52 PM EST on February 12, 2016 (GMT -0500)
2.2 N Wilmington | | Change Station
CLOSE
Current Station
Personal Weather Station
Location: Wilmington, OH
Elevation: 1053 ft
Nearby Weather Stations
Active Advisory: Wind Chill Advisory

Elev 1053 ft 39.47 °N, 83.84 °W | Updated 11 minutes ago

Light Snow
Light Snow
18.5 °F
Feels Like 10 °F
N
6.0
Wind Variable Wind from NW
Gusts 13.0 mph

Today
High -- | Low -- °F
--% Chance of Precip.
Yesterday
High -- | Low -- °F
Precip. -- in
Pressure 30.19 in
Visibility 3.0 miles
Clouds Overcast 2400 ft
Windchill 10 °F
Dew Point 14 °F
Humidity 82%
Rainfall 0.00 in
Snow Depth Not available.
7:31 AM 6:08 PM
Waxing Crescent, 26% visible
SPECI KILN 130246Z AUTO 31015KT 3SM -SN OVC024 M08/M11 A3019 RMK AO2 P0000 T10781106
Pressure 30.19 in
Visibility 3.0 miles
Clouds Overcast 2400 ft
Windchill 10 °F
Dew Point 14 °F
Humidity 82%
Rainfall 0.00 in
Snow Depth Not available.
7:31 AM 6:08 PM
Waxing Crescent, 26% visible
SPECI KILN 130246Z AUTO 31015KT 3SM -SN OVC024 M08/M11 A3019 RMK AO2 P0000 T10781106

10-Day Weather Forecast

Almanac

Astronomy

Feb. 12, 2016 Rise Set
Actual Time
Civil Twilight
Nautical Twilight
Astronomical Twilight
Moon
Length of Visible Light
Length of Day
Tomorrow will be .
, % of the Moon is Illuminated

Today's Extremes

State Highs State Lows

Community

WunderPhotos

Upload Photos

1,892,464 photos uploaded!

WunderBlog® & News

Nearby

Air Quality

  Air Quality AQ Index Pollutant
Not available.

Snow Depth

Station Depth Elevation

Earthquake Activity

City Distance Mag. Time & Date
Minimum magnitude displayed is 2.5.

Coastal Water Temperatures

Place Temperature

Stations

Nearby Weather Stations

Station Location Temp. Windchill Dew Point Humidity Wind Precip. Elev Updated Type
                   

Watches & Warnings

Wind Chill Advisory
Issued: 2:45 PM EST Feb. 12, 2016 – National Weather Service

... Wind Chill Advisory in effect from 10 PM this evening to 10 am
EST Saturday...

The National Weather Service in Wilmington has issued a Wind
Chill Advisory... which is in effect from 10 PM this evening to
10 am EST Saturday.

* Hazard types... cold wind chill readings.

* Wind chill readings... as cold as 11 below.

* Impacts... the frigid conditions will be dangerous to those
venturing outside. Exposure may cause frostbite.

* Winds... northwest 10 to 20 mph with gusts up to 25 mph.

* Temperatures... lows 5 above to 10 above.

Precautionary/preparedness actions...

A Wind Chill Advisory is issued when a strong wind will combine
with cold temperatures to create dangerously cold conditions for
exposed skin. The wind will make it feel like it is between
10 and 24 degrees below zero for a period of several hours.
Those planning to venture outdoors should use common sense and
dress warmly, making sure that all exposed skin is covered.